sensor_id;sensor_type;location;lat;lon;timestamp;pressure;altitude;pressure_sealevel;temperature;humidity
8334;BME280;4204;43.004;23.052;2024-03-02T00:02:23;93275.59;;;8.02;78.22
8334;BME280;4204;43.004;23.052;2024-03-02T00:04:49;93280.31;;;8.05;76.05
8334;BME280;4204;43.004;23.052;2024-03-02T00:07:14;93283.09;;;8.04;76.01
8334;BME280;4204;43.004;23.052;2024-03-02T00:09:40;93289.78;;;8.05;76.44
8334;BME280;4204;43.004;23.052;2024-03-02T00:12:06;93291.38;;;7.99;77.59
8334;BME280;4204;43.004;23.052;2024-03-02T00:14:31;93294.56;;;7.94;75.86
8334;BME280;4204;43.004;23.052;2024-03-02T00:16:57;93287.25;;;7.98;76.50
8334;BME280;4204;43.004;23.052;2024-03-02T00:19:22;93296.53;;;7.86;76.58
8334;BME280;4204;43.004;23.052;2024-03-02T00:21:48;93302.06;;;7.89;77.38
8334;BME280;4204;43.004;23.052;2024-03-02T00:24:34;93296.34;;;7.87;75.86
8334;BME280;4204;43.004;23.052;2024-03-02T00:27:01;93296.53;;;7.86;76.95
8334;BME280;4204;43.004;23.052;2024-03-02T00:29:29;93298.31;;;7.79;76.79
8334;BME280;4204;43.004;23.052;2024-03-02T00:31:55;93285.91;;;7.62;77.09
8334;BME280;4204;43.004;23.052;2024-03-02T00:34:21;93287.09;;;7.60;76.87
8334;BME280;4204;43.004;23.052;2024-03-02T00:36:46;93305.03;;;7.67;78.35
8334;BME280;4204;43.004;23.052;2024-03-02T00:39:14;93299.91;;;7.67;78.66
8334;BME280;4204;43.004;23.052;2024-03-02T00:41:41;93301.69;;;7.66;77.27
8334;BME280;4204;43.004;23.052;2024-03-02T00:44:12;93293.00;;;7.60;76.78
8334;BME280;4204;43.004;23.052;2024-03-02T00:46:41;93290.84;;;7.57;78.51
8334;BME280;4204;43.004;23.052;2024-03-02T00:51:37;93291.00;;;7.43;78.75
8334;BME280;4204;43.004;23.052;2024-03-02T00:54:07;93283.91;;;7.31;78.55
8334;BME280;4204;43.004;23.052;2024-03-02T00:56:33;93291.00;;;7.29;77.95
8334;BME280;4204;43.004;23.052;2024-03-02T00:58:59;93283.91;;;7.25;79.41
8334;BME280;4204;43.004;23.052;2024-03-02T01:01:25;93299.69;;;7.35;79.55
8334;BME280;4204;43.004;23.052;2024-03-02T01:03:50;93289.81;;;7.32;79.35
8334;BME280;4204;43.004;23.052;2024-03-02T01:06:16;93303.22;;;7.27;79.54
8334;BME280;4204;43.004;23.052;2024-03-02T01:08:42;93287.25;;;7.25;79.01
8334;BME280;4204;43.004;23.052;2024-03-02T01:11:08;93277.38;;;7.16;79.10
8334;BME280;4204;43.004;23.052;2024-03-02T01:13:33;93286.66;;;7.17;79.45
8334;BME280;4204;43.004;23.052;2024-03-02T01:15:59;93285.88;;;7.16;80.35
8334;BME280;4204;43.004;23.052;2024-03-02T01:18:25;93286.25;;;7.07;80.67
8334;BME280;4204;43.004;23.052;2024-03-02T01:20:51;93287.44;;;7.11;80.82
8334;BME280;4204;43.004;23.052;2024-03-02T01:23:20;93274.03;;;7.09;80.01
8334;BME280;4204;43.004;23.052;2024-03-02T01:25:49;93275.59;;;7.10;81.04
8334;BME280;4204;43.004;23.052;2024-03-02T01:28:15;93272.44;;;6.94;80.64
8334;BME280;4204;43.004;23.052;2024-03-02T01:30:40;93264.16;;;6.92;81.63
8334;BME280;4204;43.004;23.052;2024-03-02T01:33:06;93265.72;;;6.93;81.98
8334;BME280;4204;43.004;23.052;2024-03-02T01:35:32;93272.44;;;6.94;81.38
8334;BME280;4204;43.004;23.052;2024-03-02T01:37:58;93267.31;;;6.94;80.24
8334;BME280;4204;43.004;23.052;2024-03-02T01:40:23;93261.16;;;6.82;82.47
8334;BME280;4204;43.004;23.052;2024-03-02T01:42:55;93260.16;;;6.70;82.40
8334;BME280;4204;43.004;23.052;2024-03-02T01:45:21;93242.56;;;6.60;81.72
8334;BME280;4204;43.004;23.052;2024-03-02T01:47:47;93257.03;;;6.75;81.85
8334;BME280;4204;43.004;23.052;2024-03-02T01:50:12;93251.09;;;6.74;81.81
8334;BME280;4204;43.004;23.052;2024-03-02T01:52:38;93253.66;;;6.74;82.93
8334;BME280;4204;43.004;23.052;2024-03-02T01:55:04;93243.22;;;6.69;81.54
8334;BME280;4204;43.004;23.052;2024-03-02T01:57:30;93243.22;;;6.69;82.75
8334;BME280;4204;43.004;23.052;2024-03-02T01:59:56;93243.56;;;6.66;82.76
8334;BME280;4204;43.004;23.052;2024-03-02T02:02:22;93233.94;;;6.68;82.78
8334;BME280;4204;43.004;23.052;2024-03-02T02:04:47;93238.06;;;6.62;82.88
8334;BME280;4204;43.004;23.052;2024-03-02T02:07:13;93241.00;;;6.66;83.14
8334;BME280;4204;43.004;23.052;2024-03-02T02:09:41;93226.41;;;6.60;82.90
8334;BME280;4204;43.004;23.052;2024-03-02T02:12:07;93241.22;;;6.64;82.87
8334;BME280;4204;43.004;23.052;2024-03-02T02:14:33;93227.22;;;6.60;82.77
8334;BME280;4204;43.004;23.052;2024-03-02T02:16:59;93240.00;;;6.60;82.62
8334;BME280;4204;43.004;23.052;2024-03-02T02:19:24;93230.56;;;6.61;82.84
8334;BME280;4204;43.004;23.052;2024-03-02T02:21:50;93227.84;;;6.69;82.26
8334;BME280;4204;43.004;23.052;2024-03-02T02:24:15;93231.72;;;6.58;83.90
8334;BME280;4204;43.004;23.052;2024-03-02T02:26:40;93234.09;;;6.60;82.39
8334;BME280;4204;43.004;23.052;2024-03-02T02:29:06;93231.13;;;6.50;83.77
8334;BME280;4204;43.004;23.052;2024-03-02T02:31:41;93230.16;;;6.51;83.85
8334;BME280;4204;43.004;23.052;2024-03-02T02:34:07;93230.53;;;6.54;83.07
8334;BME280;4204;43.004;23.052;2024-03-02T02:36:33;93240.78;;;6.54;83.36
8334;BME280;4204;43.004;23.052;2024-03-02T02:39:02;93220.28;;;6.48;82.90
8334;BME280;4204;43.004;23.052;2024-03-02T02:41:32;93233.50;;;6.58;82.10
8334;BME280;4204;43.004;23.052;2024-03-02T02:43:57;93232.91;;;6.49;84.06
8334;BME280;4204;43.004;23.052;2024-03-02T02:46:23;93223.81;;;6.40;83.17
8334;BME280;4204;43.004;23.052;2024-03-02T02:48:48;93229.53;;;6.49;83.16
8334;BME280;4204;43.004;23.052;2024-03-02T02:51:14;93233.31;;;6.53;83.30
8334;BME280;4204;43.004;23.052;2024-03-02T02:53:39;93235.28;;;6.57;83.26
8334;BME280;4204;43.004;23.052;2024-03-02T02:56:09;93223.47;;;6.63;83.15
8334;BME280;4204;43.004;23.052;2024-03-02T02:58:34;93227.84;;;6.69;82.82
8334;BME280;4204;43.004;23.052;2024-03-02T03:01:01;93224.91;;;6.72;82.95
8334;BME280;4204;43.004;23.052;2024-03-02T03:03:27;93222.16;;;6.80;82.84
8334;BME280;4204;43.004;23.052;2024-03-02T03:05:52;93229.25;;;6.91;82.30
8334;BME280;4204;43.004;23.052;2024-03-02T03:08:17;93226.31;;;7.01;83.10
8334;BME280;4204;43.004;23.052;2024-03-02T03:10:43;93232.22;;;7.08;81.61
8334;BME280;4204;43.004;23.052;2024-03-02T03:13:08;93217.06;;;7.13;82.78
8334;BME280;4204;43.004;23.052;2024-03-02T03:15:35;93229.88;;;7.20;81.52
8334;BME280;4204;43.004;23.052;2024-03-02T03:18:04;93217.44;;;7.17;81.98
8334;BME280;4204;43.004;23.052;2024-03-02T03:20:30;93210.94;;;7.08;81.70
8334;BME280;4204;43.004;23.052;2024-03-02T03:22:56;93226.91;;;7.23;81.38
8334;BME280;4204;43.004;23.052;2024-03-02T03:25:22;93225.94;;;7.24;80.30
8334;BME280;4204;43.004;23.052;2024-03-02T03:27:47;93225.72;;;7.32;80.72
8334;BME280;4204;43.004;23.052;2024-03-02T03:30:13;93243.66;;;7.39;80.10
8334;BME280;4204;43.004;23.052;2024-03-02T03:32:38;93223.34;;;7.37;80.88
8334;BME280;4204;43.004;23.052;2024-03-02T03:35:04;93233.44;;;7.45;80.95
8334;BME280;4204;43.004;23.052;2024-03-02T03:37:30;93235.59;;;7.48;80.75
8334;BME280;4204;43.004;23.052;2024-03-02T03:39:59;93224.38;;;7.49;80.33
8334;BME280;4204;43.004;23.052;2024-03-02T03:42:24;93227.53;;;7.51;80.88
8334;BME280;4204;43.004;23.052;2024-03-02T03:44:49;93231.66;;;7.59;80.52
8334;BME280;4204;43.004;23.052;2024-03-02T03:47:15;93230.66;;;7.60;80.09
8334;BME280;4204;43.004;23.052;2024-03-02T03:49:40;93235.00;;;7.59;80.85
8334;BME280;4204;43.004;23.052;2024-03-02T03:52:06;93234.63;;;7.56;81.20
8334;BME280;4204;43.004;23.052;2024-03-02T03:54:31;93238.94;;;7.55;80.58
8334;BME280;4204;43.004;23.052;2024-03-02T03:56:57;93235.81;;;7.53;80.67
8334;BME280;4204;43.004;23.052;2024-03-02T03:59:22;93236.19;;;7.57;79.64
8334;BME280;4204;43.004;23.052;2024-03-02T04:01:48;93234.81;;;7.54;79.86
8334;BME280;4204;43.004;23.052;2024-03-02T04:04:13;93238.94;;;7.55;79.99
8334;BME280;4204;43.004;23.052;2024-03-02T04:06:38;93222.56;;;7.56;80.12
8334;BME280;4204;43.004;23.052;2024-03-02T04:09:04;93244.66;;;7.64;79.36
8334;BME280;4204;43.004;23.052;2024-03-02T04:11:29;93236.97;;;7.57;80.09
8334;BME280;4204;43.004;23.052;2024-03-02T04:13:55;93240.53;;;7.50;80.11
8334;BME280;4204;43.004;23.052;2024-03-02T04:16:21;93240.91;;;7.40;81.01
8334;BME280;4204;43.004;23.052;2024-03-02T04:18:46;93235.97;;;7.39;82.11
8334;BME280;4204;43.004;23.052;2024-03-02T04:21:12;93242.72;;;7.46;81.50
8334;BME280;4204;43.004;23.052;2024-03-02T04:23:37;93231.06;;;7.37;80.78
8334;BME280;4204;43.004;23.052;2024-03-02T04:26:02;93236.19;;;7.30;81.46
8334;BME280;4204;43.004;23.052;2024-03-02T04:28:28;93237.97;;;7.23;81.93
8334;BME280;4204;43.004;23.052;2024-03-02T04:30:54;93231.84;;;7.18;82.89
8334;BME280;4204;43.004;23.052;2024-03-02T04:33:19;93236.97;;;7.11;82.27
8334;BME280;4204;43.004;23.052;2024-03-02T04:35:44;93239.34;;;7.13;82.72
8334;BME280;4204;43.004;23.052;2024-03-02T04:38:10;93233.03;;;7.22;83.01
8334;BME280;4204;43.004;23.052;2024-03-02T04:40:35;93238.16;;;7.28;82.04
8334;BME280;4204;43.004;23.052;2024-03-02T04:43:00;93231.06;;;7.30;81.41
8334;BME280;4204;43.004;23.052;2024-03-02T04:45:26;93233.03;;;7.35;81.13
8334;BME280;4204;43.004;23.052;2024-03-02T04:47:51;93246.25;;;7.32;80.82
8334;BME280;4204;43.004;23.052;2024-03-02T04:50:16;93234.41;;;7.31;81.51
8334;BME280;4204;43.004;23.052;2024-03-02T04:52:42;93233.81;;;7.36;80.44
8334;BME280;4204;43.004;23.052;2024-03-02T04:55:07;93240.13;;;7.40;80.33
8334;BME280;4204;43.004;23.052;2024-03-02T04:57:42;93246.25;;;7.32;81.69
8334;BME280;4204;43.004;23.052;2024-03-02T05:00:08;93247.41;;;7.23;81.66
8334;BME280;4204;43.004;23.052;2024-03-02T05:02:34;93233.03;;;7.09;82.42
8334;BME280;4204;43.004;23.052;2024-03-02T05:05:00;93248.00;;;7.12;82.58
8334;BME280;4204;43.004;23.052;2024-03-02T05:07:25;93242.88;;;7.12;82.81
8334;BME280;4204;43.004;23.052;2024-03-02T05:09:51;93235.78;;;7.07;83.12
8334;BME280;4204;43.004;23.052;2024-03-02T05:12:16;93249.19;;;7.22;82.41
8334;BME280;4204;43.004;23.052;2024-03-02T05:14:48;93242.50;;;7.28;82.37
8334;BME280;4204;43.004;23.052;2024-03-02T05:17:13;93244.84;;;7.36;81.64
8334;BME280;4204;43.004;23.052;2024-03-02T05:19:38;93247.63;;;7.41;81.93
8334;BME280;4204;43.004;23.052;2024-03-02T05:22:04;93251.59;;;7.44;80.29
8334;BME280;4204;43.004;23.052;2024-03-02T05:24:29;93251.19;;;7.47;81.27
8334;BME280;4204;43.004;23.052;2024-03-02T05:26:55;93259.06;;;7.52;80.54
8334;BME280;4204;43.004;23.052;2024-03-02T05:29:21;93254.53;;;7.47;80.37
8334;BME280;4204;43.004;23.052;2024-03-02T05:31:46;93257.88;;;7.41;81.68
8334;BME280;4204;43.004;23.052;2024-03-02T05:34:12;93246.63;;;7.29;81.03
8334;BME280;4204;43.004;23.052;2024-03-02T05:36:37;93255.31;;;7.34;81.74
8334;BME280;4204;43.004;23.052;2024-03-02T05:39:04;93257.28;;;7.32;82.67
8334;BME280;4204;43.004;23.052;2024-03-02T05:41:31;93270.50;;;7.36;82.32
8334;BME280;4204;43.004;23.052;2024-03-02T05:43:57;93268.13;;;7.34;82.11
8334;BME280;4204;43.004;23.052;2024-03-02T05:46:22;93257.47;;;7.24;82.57
8334;BME280;4204;43.004;23.052;2024-03-02T05:48:47;93265.75;;;7.26;82.81
8334;BME280;4204;43.004;23.052;2024-03-02T05:51:13;93264.97;;;7.32;82.25
8334;BME280;4204;43.004;23.052;2024-03-02T05:53:38;93272.66;;;7.39;82.19
8334;BME280;4204;43.004;23.052;2024-03-02T05:56:05;93275.63;;;7.43;82.30
8334;BME280;4204;43.004;23.052;2024-03-02T05:58:30;93284.13;;;7.43;82.10
8334;BME280;4204;43.004;23.052;2024-03-02T06:01:18;93274.06;;;7.48;81.75
8334;BME280;4204;43.004;23.052;2024-03-02T06:03:43;93278.03;;;7.51;81.31
8334;BME280;4204;43.004;23.052;2024-03-02T06:06:09;93276.25;;;7.51;81.03
8334;BME280;4204;43.004;23.052;2024-03-02T06:08:35;93275.84;;;7.54;80.40
8334;BME280;4204;43.004;23.052;2024-03-02T06:11:00;93271.72;;;7.53;80.67
8334;BME280;4204;43.004;23.052;2024-03-02T06:13:26;93271.31;;;7.56;81.06
8334;BME280;4204;43.004;23.052;2024-03-02T06:15:52;93278.81;;;7.58;80.10
8334;BME280;4204;43.004;23.052;2024-03-02T06:18:17;93279.00;;;7.56;80.66
8334;BME280;4204;43.004;23.052;2024-03-02T06:20:43;93278.81;;;7.58;81.17
8334;BME280;4204;43.004;23.052;2024-03-02T06:23:08;93282.56;;;7.62;79.94
8334;BME280;4204;43.004;23.052;2024-03-02T06:25:34;93270.50;;;7.62;80.13
8334;BME280;4204;43.004;23.052;2024-03-02T06:28:00;93271.88;;;7.65;81.02
8334;BME280;4204;43.004;23.052;2024-03-02T06:30:25;93272.88;;;7.64;82.30
8334;BME280;4204;43.004;23.052;2024-03-02T06:32:50;93282.34;;;7.70;80.48
8334;BME280;4204;43.004;23.052;2024-03-02T06:35:16;93276.44;;;7.70;80.21
8334;BME280;4204;43.004;23.052;2024-03-02T06:37:41;93280.97;;;7.74;80.06
8334;BME280;4204;43.004;23.052;2024-03-02T06:40:07;93279.19;;;7.75;80.86
8334;BME280;4204;43.004;23.052;2024-03-02T06:42:33;93289.84;;;7.78;80.42
8334;BME280;4204;43.004;23.052;2024-03-02T06:44:59;93287.66;;;7.82;80.85
8334;BME280;4204;43.004;23.052;2024-03-02T06:47:25;93292.00;;;7.81;79.82
8334;BME280;4204;43.004;23.052;2024-03-02T06:49:50;93297.13;;;7.81;80.76
8334;BME280;4204;43.004;23.052;2024-03-02T06:52:16;93289.84;;;7.78;80.82
8334;BME280;4204;43.004;23.052;2024-03-02T06:54:41;93301.09;;;7.84;81.46
8334;BME280;4204;43.004;23.052;2024-03-02T06:57:07;93300.09;;;7.85;81.81
8334;BME280;4204;43.004;23.052;2024-03-02T06:59:32;93293.97;;;7.86;82.12
8334;BME280;4204;43.004;23.052;2024-03-02T07:01:58;93299.09;;;7.86;81.73
8334;BME280;4204;43.004;23.052;2024-03-02T07:04:24;93291.00;;;7.89;81.58
8334;BME280;4204;43.004;23.052;2024-03-02T07:06:49;93302.84;;;7.90;80.74
8334;BME280;4204;43.004;23.052;2024-03-02T07:09:16;93308.00;;;7.83;81.74
8334;BME280;4204;43.004;23.052;2024-03-02T07:11:42;93305.44;;;7.83;82.02
8334;BME280;4204;43.004;23.052;2024-03-02T07:14:08;93313.72;;;7.85;82.23
8334;BME280;4204;43.004;23.052;2024-03-02T07:16:35;93306.00;;;7.85;82.15
8334;BME280;4204;43.004;23.052;2024-03-02T07:19:03;93305.22;;;7.85;81.88
8334;BME280;4204;43.004;23.052;2024-03-02T07:21:28;93309.16;;;7.87;80.75
8334;BME280;4204;43.004;23.052;2024-03-02T07:23:54;93311.94;;;7.79;80.35
8334;BME280;4204;43.004;23.052;2024-03-02T07:26:19;93303.84;;;7.76;82.50
8334;BME280;4204;43.004;23.052;2024-03-02T07:28:48;93307.22;;;7.70;81.08
8334;BME280;4204;43.004;23.052;2024-03-02T07:31:14;93301.69;;;7.53;82.00
8334;BME280;4204;43.004;23.052;2024-03-02T07:33:40;93307.22;;;7.56;82.69
8334;BME280;4204;43.004;23.052;2024-03-02T07:36:07;93309.97;;;7.61;82.47
8334;BME280;4204;43.004;23.052;2024-03-02T07:38:32;93312.75;;;7.60;83.08
8334;BME280;4204;43.004;23.052;2024-03-02T07:40:59;93310.56;;;7.63;82.59
8334;BME280;4204;43.004;23.052;2024-03-02T07:43:25;93317.28;;;7.71;82.63
8334;BME280;4204;43.004;23.052;2024-03-02T07:45:50;93313.91;;;7.71;82.68
8334;BME280;4204;43.004;23.052;2024-03-02T07:48:16;93318.84;;;7.79;83.05
8334;BME280;4204;43.004;23.052;2024-03-02T07:50:42;93313.91;;;7.84;83.12
8334;BME280;4204;43.004;23.052;2024-03-02T07:53:08;93312.72;;;7.86;82.19
8334;BME280;4204;43.004;23.052;2024-03-02T07:55:34;93316.66;;;7.89;82.91
8334;BME280;4204;43.004;23.052;2024-03-02T07:58:02;93320.22;;;7.94;82.63
8334;BME280;4204;43.004;23.052;2024-03-02T08:00:28;93325.94;;;7.96;81.34
8334;BME280;4204;43.004;23.052;2024-03-02T08:02:54;93322.19;;;7.92;83.19
8334;BME280;4204;43.004;23.052;2024-03-02T08:05:20;93324.75;;;7.99;82.84
8334;BME280;4204;43.004;23.052;2024-03-02T08:07:46;93333.03;;;8.01;81.70
8334;BME280;4204;43.004;23.052;2024-03-02T08:10:13;93331.84;;;8.04;82.90
8334;BME280;4204;43.004;23.052;2024-03-02T08:12:38;93336.00;;;8.05;82.32
8334;BME280;4204;43.004;23.052;2024-03-02T08:15:04;93341.53;;;8.08;82.98
8334;BME280;4204;43.004;23.052;2024-03-02T08:17:30;93332.03;;;8.09;82.35
8334;BME280;4204;43.004;23.052;2024-03-02T08:19:56;93336.97;;;8.17;81.37
8334;BME280;4204;43.004;23.052;2024-03-02T08:22:22;93334.81;;;8.20;81.71
8334;BME280;4204;43.004;23.052;2024-03-02T08:24:48;93331.25;;;8.21;80.86
8334;BME280;4204;43.004;23.052;2024-03-02T08:27:13;93326.53;;;8.18;80.59
8334;BME280;4204;43.004;23.052;2024-03-02T08:29:40;93343.50;;;8.26;81.44
8334;BME280;4204;43.004;23.052;2024-03-02T08:32:06;93336.00;;;8.24;80.64
8334;BME280;4204;43.004;23.052;2024-03-02T08:34:32;93335.41;;;8.22;81.55
8334;BME280;4204;43.004;23.052;2024-03-02T08:36:59;93338.34;;;8.26;80.92
8334;BME280;4204;43.004;23.052;2024-03-02T08:39:24;93334.81;;;8.27;81.26
8334;BME280;4204;43.004;23.052;2024-03-02T08:41:50;93345.47;;;8.31;81.64
8334;BME280;4204;43.004;23.052;2024-03-02T08:44:16;93347.81;;;8.32;81.23
8334;BME280;4204;43.004;23.052;2024-03-02T08:46:41;93349.81;;;8.37;81.62
8334;BME280;4204;43.004;23.052;2024-03-02T08:49:07;93350.59;;;8.37;79.73
8334;BME280;4204;43.004;23.052;2024-03-02T08:51:33;93346.25;;;8.38;80.76
8334;BME280;4204;43.004;23.052;2024-03-02T08:53:59;93332.25;;;8.34;81.27
8334;BME280;4204;43.004;23.052;2024-03-02T08:56:26;93353.53;;;8.47;79.73
8334;BME280;4204;43.004;23.052;2024-03-02T08:58:52;93355.31;;;8.47;79.52
8334;BME280;4204;43.004;23.052;2024-03-02T09:01:18;93353.53;;;8.47;79.13
8334;BME280;4204;43.004;23.052;2024-03-02T09:03:45;93351.56;;;8.49;80.00
8334;BME280;4204;43.004;23.052;2024-03-02T09:06:11;93359.06;;;8.51;80.09
8334;BME280;4204;43.004;23.052;2024-03-02T09:08:37;93354.53;;;8.53;79.88
8334;BME280;4204;43.004;23.052;2024-03-02T09:11:04;93358.88;;;8.52;78.82
8334;BME280;4204;43.004;23.052;2024-03-02T09:13:31;93365.97;;;8.57;78.56
8334;BME280;4204;43.004;23.052;2024-03-02T09:15:56;93353.72;;;8.59;79.44
8334;BME280;4204;43.004;23.052;2024-03-02T09:18:22;93365.56;;;8.60;79.98
8334;BME280;4204;43.004;23.052;2024-03-02T09:20:47;93355.09;;;8.55;79.67
8334;BME280;4204;43.004;23.052;2024-03-02T09:23:13;93364.78;;;8.59;79.35
8334;BME280;4204;43.004;23.052;2024-03-02T09:25:38;93365.75;;;8.58;79.80
8334;BME280;4204;43.004;23.052;2024-03-02T09:28:04;93361.41;;;8.59;78.40
8334;BME280;4204;43.004;23.052;2024-03-02T09:30:29;93370.91;;;8.58;80.19
8334;BME280;4204;43.004;23.052;2024-03-02T09:32:55;93360.63;;;8.58;79.65
8334;BME280;4204;43.004;23.052;2024-03-02T09:35:20;93372.69;;;8.51;80.19
8334;BME280;4204;43.004;23.052;2024-03-02T09:37:46;93373.31;;;8.47;80.35
8334;BME280;4204;43.004;23.052;2024-03-02T09:40:12;93365.81;;;8.45;78.65
8334;BME280;4204;43.004;23.052;2024-03-02T09:42:38;93370.53;;;8.48;80.60
8334;BME280;4204;43.004;23.052;2024-03-02T09:45:05;93380.81;;;8.42;79.82
8334;BME280;4204;43.004;23.052;2024-03-02T09:47:31;93378.66;;;8.39;80.14
8334;BME280;4204;43.004;23.052;2024-03-02T09:49:56;93368.97;;;8.27;79.26
8334;BME280;4204;43.004;23.052;2024-03-02T09:52:25;93371.34;;;8.29;80.22
8334;BME280;4204;43.004;23.052;2024-03-02T09:54:51;93372.34;;;8.21;81.07
8334;BME280;4204;43.004;23.052;2024-03-02T09:57:16;93368.16;;;8.14;78.92
8334;BME280;4204;43.004;23.052;2024-03-02T09:59:42;93366.59;;;8.19;79.23
8334;BME280;4204;43.004;23.052;2024-03-02T10:02:07;93371.75;;;8.26;79.82
8334;BME280;4204;43.004;23.052;2024-03-02T10:04:33;93371.13;;;8.31;79.78
8334;BME280;4204;43.004;23.052;2024-03-02T10:07:14;93369.97;;;8.26;79.02
8334;BME280;4204;43.004;23.052;2024-03-02T10:09:41;93367.59;;;8.25;78.74
8334;BME280;4204;43.004;23.052;2024-03-02T10:12:11;93377.47;;;8.28;78.96
8334;BME280;4204;43.004;23.052;2024-03-02T10:14:37;93373.34;;;8.34;80.57
8334;BME280;4204;43.004;23.052;2024-03-02T10:19:29;93369.19;;;8.39;79.33
8334;BME280;4204;43.004;23.052;2024-03-02T10:21:59;93369.94;;;8.46;78.22
8334;BME280;4204;43.004;23.052;2024-03-02T10:24:25;93367.19;;;8.48;79.20
8334;BME280;4204;43.004;23.052;2024-03-02T10:26:51;93364.41;;;8.49;78.78
8334;BME280;4204;43.004;23.052;2024-03-02T10:29:18;93377.44;;;8.54;79.61
8334;BME280;4204;43.004;23.052;2024-03-02T10:31:45;93365.19;;;8.56;78.87
8334;BME280;4204;43.004;23.052;2024-03-02T10:34:13;93364.38;;;8.56;78.57
8334;BME280;4204;43.004;23.052;2024-03-02T10:36:43;93356.88;;;8.54;78.46
8334;BME280;4204;43.004;23.052;2024-03-02T10:39:09;93359.84;;;8.58;78.93
8334;BME280;4204;43.004;23.052;2024-03-02T10:41:36;93359.63;;;8.66;78.89
8334;BME280;4204;43.004;23.052;2024-03-02T10:44:06;93357.66;;;8.62;79.34
8334;BME280;4204;43.004;23.052;2024-03-02T10:46:33;93364.38;;;8.63;78.82
8334;BME280;4204;43.004;23.052;2024-03-02T10:49:00;93352.50;;;8.62;79.34
8334;BME280;4204;43.004;23.052;2024-03-02T10:51:27;93344.03;;;8.61;78.88
8334;BME280;4204;43.004;23.052;2024-03-02T10:53:55;93348.94;;;8.63;78.06
8334;BME280;4204;43.004;23.052;2024-03-02T11:01:55;93349.38;;;8.53;80.19
8334;BME280;4204;43.004;23.052;2024-03-02T11:04:25;93351.38;;;8.51;81.04
8334;BME280;4204;43.004;23.052;2024-03-02T11:06:52;93351.94;;;8.53;78.61
8334;BME280;4204;43.004;23.052;2024-03-02T11:09:21;93346.44;;;8.49;78.07
8334;BME280;4204;43.004;23.052;2024-03-02T11:12:19;93337.94;;;8.49;79.32
8334;BME280;4204;43.004;23.052;2024-03-02T11:14:42;93339.31;;;8.51;79.86
8334;BME280;4204;43.004;23.052;2024-03-02T11:17:13;93340.31;;;8.50;80.76
8334;BME280;4204;43.004;23.052;2024-03-02T11:19:41;93334.19;;;8.45;80.02
8334;BME280;4204;43.004;23.052;2024-03-02T11:22:08;93338.91;;;8.54;79.95
8334;BME280;4204;43.004;23.052;2024-03-02T11:24:34;93343.84;;;8.56;79.11
8334;BME280;4204;43.004;23.052;2024-03-02T11:27:01;93346.00;;;8.59;80.54
8334;BME280;4204;43.004;23.052;2024-03-02T11:32:05;93334.72;;;8.60;80.40
8334;BME280;4204;43.004;23.052;2024-03-02T11:34:35;93332.16;;;8.60;78.61
8334;BME280;4204;43.004;23.052;2024-03-02T11:37:03;93342.25;;;8.62;79.08
8334;BME280;4204;43.004;23.052;2024-03-02T11:39:28;93343.28;;;8.47;79.49
8334;BME280;4204;43.004;23.052;2024-03-02T11:41:56;93336.16;;;8.49;78.87
8334;BME280;4204;43.004;23.052;2024-03-02T11:44:22;93340.09;;;8.52;79.30
8334;BME280;4204;43.004;23.052;2024-03-02T11:46:58;93340.69;;;8.54;79.15
8334;BME280;4204;43.004;23.052;2024-03-02T11:52:12;93345.00;;;8.60;78.79
8334;BME280;4204;43.004;23.052;2024-03-02T11:54:40;93335.31;;;8.62;78.43
8334;BME280;4204;43.004;23.052;2024-03-02T11:57:08;93330.81;;;8.51;79.39
8334;BME280;4204;43.004;23.052;2024-03-02T11:59:34;93346.81;;;8.53;79.35
8334;BME280;4204;43.004;23.052;2024-03-02T12:02:00;93334.34;;;8.56;78.67
8334;BME280;4204;43.004;23.052;2024-03-02T12:04:26;93334.75;;;8.53;81.10
8334;BME280;4204;43.004;23.052;2024-03-02T12:06:58;93339.31;;;8.51;78.81
8334;BME280;4204;43.004;23.052;2024-03-02T12:09:27;93339.69;;;8.55;78.01
8334;BME280;4204;43.004;23.052;2024-03-02T12:12:11;93335.31;;;8.62;78.78
8334;BME280;4204;43.004;23.052;2024-03-02T12:14:38;93332.94;;;8.60;79.75
8334;BME280;4204;43.004;23.052;2024-03-02T12:17:06;93326.63;;;8.63;79.84
8334;BME280;4204;43.004;23.052;2024-03-02T12:19:33;93336.25;;;8.74;78.25
8334;BME280;4204;43.004;23.052;2024-03-02T12:21:59;93338.59;;;8.82;79.96
8334;BME280;4204;43.004;23.052;2024-03-02T12:24:29;93329.91;;;8.83;76.34
8334;BME280;4204;43.004;23.052;2024-03-02T12:26:55;93325.13;;;8.87;76.63
8334;BME280;4204;43.004;23.052;2024-03-02T12:29:21;93323.59;;;8.79;76.73
8334;BME280;4204;43.004;23.052;2024-03-02T12:31:53;93329.50;;;8.86;76.90
8334;BME280;4204;43.004;23.052;2024-03-02T12:34:18;93330.50;;;8.79;77.41
8334;BME280;4204;43.004;23.052;2024-03-02T12:36:46;93331.88;;;8.81;76.94
8334;BME280;4204;43.004;23.052;2024-03-02T12:39:13;93331.88;;;8.81;77.13
8334;BME280;4204;43.004;23.052;2024-03-02T12:41:39;93326.31;;;8.91;76.76
8334;BME280;4204;43.004;23.052;2024-03-02T12:44:05;93335.59;;;8.99;77.63
8334;BME280;4204;43.004;23.052;2024-03-02T12:46:31;93330.22;;;9.07;77.12
8334;BME280;4204;43.004;23.052;2024-03-02T12:49:05;93329.59;;;9.11;77.44
8334;BME280;4204;43.004;23.052;2024-03-02T12:51:32;93322.63;;;9.18;76.27
8334;BME280;4204;43.004;23.052;2024-03-02T12:53:57;93336.44;;;9.24;76.15
8334;BME280;4204;43.004;23.052;2024-03-02T12:56:24;93330.31;;;9.25;76.81
8334;BME280;4204;43.004;23.052;2024-03-02T12:58:54;93341.34;;;9.32;77.42
8334;BME280;4204;43.004;23.052;2024-03-02T13:01:20;93343.72;;;9.34;76.42
8334;BME280;4204;43.004;23.052;2024-03-02T13:03:49;93339.94;;;9.36;76.56
8334;BME280;4204;43.004;23.052;2024-03-02T13:06:17;93342.66;;;9.41;76.68
8334;BME280;4204;43.004;23.052;2024-03-02T13:08:44;93333.53;;;9.45;75.57
8334;BME280;4204;43.004;23.052;2024-03-02T13:11:10;93335.69;;;9.48;74.34
8334;BME280;4204;43.004;23.052;2024-03-02T13:13:35;93332.59;;;9.40;73.65
8334;BME280;4204;43.004;23.052;2024-03-02T13:16:01;93332.75;;;9.45;73.53
8334;BME280;4204;43.004;23.052;2024-03-02T13:18:28;93337.28;;;9.49;73.66
8334;BME280;4204;43.004;23.052;2024-03-02T13:20:54;93340.84;;;9.48;73.21
8334;BME280;4204;43.004;23.052;2024-03-02T13:23:21;93346.78;;;9.49;73.09
8334;BME280;4204;43.004;23.052;2024-03-02T13:25:46;93342.16;;;9.57;75.13
8334;BME280;4204;43.004;23.052;2024-03-02T13:28:13;93335.03;;;9.60;73.66
8334;BME280;4204;43.004;23.052;2024-03-02T13:30:38;93339.16;;;9.67;73.50
8334;BME280;4204;43.004;23.052;2024-03-02T13:33:04;93345.28;;;9.66;73.07
8334;BME280;4204;43.004;23.052;2024-03-02T13:35:29;93343.31;;;9.68;74.36